»·PEaware :: N7CM KSNA-KPHX

N7CM :: KSNA-KPHX

FLIGHT INFORMATION

Flight Status: Arrived
Operator: Privately registered:
United States
More flights under this callsign
Pilot: Carlos D. (29349)
Aircraft: CESSNA 550 CITATION 2/S2/BRAVO
(C550)
More flights by this aircraft type
Origin: KSNA John Wayne-Orange Co
United States
Destination: KPHX Phoenix Sky Harbor Intl
United States
More flights between these airports :: More routes between these airports
Route: PIGGN2 TCATE IPL J18 BZA J2 HOGGZ HYDRR1
File this flight plan on PilotEdge
Remarks:
Altitude:
(Current/Filed)
29,000ft
Speed:
(Current/Filed)
280kts
Departed: 24-Jul-20 06:37 PM
Arrived: 24-Jul-20 07:50 PM
Distance/Time
Traveled:
293nm/1:13
Distance/Time
To Go:
Arrived

Flight Plot

Page will automatically refresh every two minutes.

Flight plan parsing failed; only flown route is shown


Map Options




Map Legend


Flown Route
Filed Route
Departure Airport
Arrival Airport
Navaid (VOR, NDB)
Fix

Horizontal Profiles

Position Reports

Time Latitude Longitude Heading Altitude Ground
Speed
24-Jul-20 17:59 33.676642 -117.870348 209 61ft 0kts
24-Jul-20 18:00 33.676642 -117.870348 209 61ft 0kts
24-Jul-20 18:01 33.676642 -117.870348 209 61ft 0kts
24-Jul-20 18:02 33.676642 -117.870348 209 61ft 0kts
24-Jul-20 18:03 33.676642 -117.870348 209 61ft 0kts
24-Jul-20 18:04 33.676642 -117.870348 209 61ft 0kts
24-Jul-20 18:05 33.676642 -117.870348 209 61ft 0kts
24-Jul-20 18:06 33.676642 -117.870348 209 61ft 0kts
24-Jul-20 18:07 33.676642 -117.870348 209 61ft 0kts
24-Jul-20 18:08 33.676642 -117.870348 209 61ft 0kts
24-Jul-20 18:09 33.676642 -117.870348 209 61ft 0kts
24-Jul-20 18:10 33.676642 -117.870348 209 61ft 0kts
24-Jul-20 18:11 33.676642 -117.870348 209 61ft 0kts
24-Jul-20 18:12 33.676642 -117.870348 209 61ft 0kts
24-Jul-20 18:13 33.676642 -117.870348 209 61ft 0kts
24-Jul-20 18:14 33.676642 -117.870348 209 61ft 0kts
24-Jul-20 18:15 33.676642 -117.870348 209 61ft 0kts
24-Jul-20 18:16 33.676642 -117.870348 209 61ft 0kts
24-Jul-20 18:17 33.676642 -117.870348 209 61ft 0kts
24-Jul-20 18:18 33.676642 -117.870348 209 61ft 0kts
24-Jul-20 18:19 33.676642 -117.870348 209 61ft 0kts
24-Jul-20 18:20 33.676642 -117.870348 209 61ft 0kts
24-Jul-20 18:21 33.676642 -117.870348 209 61ft 0kts
24-Jul-20 18:22 33.676642 -117.870348 209 61ft 0kts
24-Jul-20 18:23 33.676642 -117.870348 209 61ft 0kts
24-Jul-20 18:24 33.676642 -117.870348 209 61ft 0kts
24-Jul-20 18:25 33.676642 -117.870348 209 61ft 0kts
24-Jul-20 18:26 33.676642 -117.870348 209 61ft 0kts
24-Jul-20 18:27 33.676642 -117.870348 209 61ft 0kts
24-Jul-20 18:28 33.676642 -117.870348 209 61ft 0kts
24-Jul-20 18:29 33.676642 -117.870348 209 61ft 0kts
24-Jul-20 18:30 33.676651 -117.869712 31 61ft 7kts
24-Jul-20 18:31 33.679295 -117.868058 18 61ft 11kts
24-Jul-20 18:32 33.681245 -117.866981 27 61ft 6kts
24-Jul-20 18:33 33.681879 -117.866405 66 61ft 0kts
24-Jul-20 18:34 33.681879 -117.866405 66 61ft 0kts
24-Jul-20 18:35 33.681924 -117.866147 88 61ft 6kts
24-Jul-20 18:36 33.678730 -117.866959 206 61ft 97kts
24-Jul-20 18:37 33.638545 -117.886466 192 3475ft 186kts
24-Jul-20 18:38 33.587913 -117.896385 187 7488ft 194kts
24-Jul-20 18:39 33.536835 -117.877549 152 10979ft 204kts
24-Jul-20 18:40 33.495630 -117.828113 116 13089ft 256kts
24-Jul-20 18:41 33.477892 -117.741225 87 14027ft 266kts
24-Jul-20 18:42 33.494904 -117.669580 65 17420ft 239kts
24-Jul-20 18:43 33.528377 -117.599011 64 19532ft 251kts
24-Jul-20 18:44 33.563871 -117.524327 65 21437ft 264kts
24-Jul-20 18:45 33.570959 -117.443403 116 23150ft 252kts
24-Jul-20 18:46 33.545742 -117.363319 117 24740ft 262kts
24-Jul-20 18:47 33.519435 -117.279648 118 26158ft 272kts
24-Jul-20 18:48 33.479052 -117.206193 143 27413ft 266kts
24-Jul-20 18:49 33.424067 -117.145504 145 28571ft 273kts
24-Jul-20 18:50 33.365991 -117.082672 145 29067ft 300kts
24-Jul-20 18:51 33.300793 -117.012086 144 29072ft 329kts
24-Jul-20 18:52 33.231351 -116.937026 143 29077ft 345kts
24-Jul-20 18:53 33.159178 -116.859209 142 29080ft 355kts
24-Jul-20 18:54 33.085225 -116.779700 142 29080ft 359kts
24-Jul-20 18:55 33.010396 -116.699473 141 29080ft 366kts
24-Jul-20 18:56 32.934290 -116.617986 141 29078ft 371kts
24-Jul-20 18:57 32.857518 -116.535982 141 29074ft 374kts
24-Jul-20 18:58 32.805558 -116.431759 98 29079ft 388kts
24-Jul-20 18:59 32.797709 -116.303458 96 29015ft 391kts
24-Jul-20 19:00 32.790117 -116.174147 96 28906ft 392kts
24-Jul-20 19:01 32.782400 -116.045171 96 28880ft 391kts
24-Jul-20 19:02 32.774597 -115.916842 96 28880ft 390kts
24-Jul-20 19:03 32.766636 -115.788313 96 28880ft 390kts
24-Jul-20 19:04 32.758534 -115.660053 95 28863ft 390kts
24-Jul-20 19:05 32.750362 -115.531757 95 28863ft 390kts
24-Jul-20 19:06 32.751434 -115.403314 89 28863ft 391kts
24-Jul-20 19:07 32.754481 -115.274190 90 28860ft 391kts
24-Jul-20 19:08 32.757398 -115.145411 90 28867ft 390kts
24-Jul-20 19:09 32.760136 -115.016984 90 28887ft 386kts
24-Jul-20 19:10 32.762706 -114.890417 90 28898ft 382kts
24-Jul-20 19:11 32.765150 -114.764793 90 28898ft 380kts
24-Jul-20 19:12 32.767460 -114.639568 90 28900ft 379kts
24-Jul-20 19:13 32.769378 -114.514584 90 28904ft 379kts
24-Jul-20 19:14 32.771083 -114.389042 90 27561ft 376kts
24-Jul-20 19:15 32.772626 -114.266222 90 26064ft 369kts
24-Jul-20 19:16 32.774039 -114.145871 90 24914ft 355kts
24-Jul-20 19:17 32.779048 -114.034123 85 24906ft 329kts
24-Jul-20 19:18 32.790349 -113.928891 84 24907ft 316kts
24-Jul-20 19:19 32.801544 -113.826435 84 24907ft 310kts
24-Jul-20 19:20 32.812648 -113.724060 84 24909ft 316kts
24-Jul-20 19:21 32.857515 -113.633480 49 24477ft 339kts
24-Jul-20 19:22 32.921706 -113.546925 49 23490ft 357kts
24-Jul-20 19:23 32.988087 -113.457439 49 22500ft 364kts
24-Jul-20 19:24 33.054587 -113.367587 49 21918ft 356kts
24-Jul-20 19:25 33.118991 -113.280557 51 21914ft 344kts
24-Jul-20 19:26 33.181978 -113.195137 51 20578ft 338kts
24-Jul-20 19:27 33.238850 -113.117978 51 18139ft 290kts
24-Jul-20 19:28 33.273156 -113.043059 86 16251ft 228kts
24-Jul-20 19:29 33.276735 -112.971826 92 15236ft 212kts
24-Jul-20 19:30 33.278573 -112.895105 90 13535ft 254kts
24-Jul-20 19:31 33.286774 -112.808107 68 11544ft 274kts
24-Jul-20 19:32 33.316732 -112.724873 64 10060ft 257kts
24-Jul-20 19:33 33.345194 -112.649740 63 9085ft 248kts
24-Jul-20 19:34 33.373125 -112.576480 63 8061ft 208kts
24-Jul-20 19:35 33.392553 -112.525478 63 8050ft 144kts
24-Jul-20 19:36 33.408560 -112.482183 66 7550ft 157kts
24-Jul-20 19:37 33.425711 -112.433331 72 7058ft 146kts
24-Jul-20 19:38 33.428543 -112.384495 94 6247ft 168kts
24-Jul-20 19:39 33.428671 -112.332052 95 5539ft 159kts
24-Jul-20 19:40 33.428857 -112.283211 89 5072ft 124kts
24-Jul-20 19:41 33.428870 -112.247268 91 5081ft 94kts
24-Jul-20 19:42 33.428891 -112.217881 91 5080ft 91kts
24-Jul-20 19:43 33.427996 -112.184052 93 4422ft 98kts
24-Jul-20 19:44 33.428666 -112.150098 92 3355ft 109kts
24-Jul-20 19:45 33.426501 -112.116284 93 2334ft 83kts
24-Jul-20 19:46 33.427158 -112.086943 92 2098ft 102kts
24-Jul-20 19:47 33.428184 -112.053163 89 1570ft 105kts
24-Jul-20 19:48 33.428953 -112.020786 91 1133ft 80kts
24-Jul-20 19:49 33.427972 -112.010646 131 1117ft 7kts

Navigation Log

Ident Type
Flight plan parsing failed, navigation log unavailable